createdAt,value
2022-09-11T00:00:40.015Z,14.10
2022-09-11T00:03:10.491Z,14.20
2022-09-11T00:05:41.978Z,14.20
2022-09-11T00:08:14.155Z,14.20
2022-09-11T00:10:47.981Z,14.20
2022-09-11T00:13:25.110Z,14.20
2022-09-11T00:15:55.614Z,14.20
2022-09-11T00:18:28.367Z,14.20
2022-09-11T00:21:00.815Z,14.30
2022-09-11T00:23:32.097Z,14.20
2022-09-11T00:26:06.239Z,14.20
2022-09-11T00:28:39.742Z,14.30
2022-09-11T00:31:12.586Z,14.30
2022-09-11T00:33:44.074Z,14.30
2022-09-11T00:36:17.376Z,14.30
2022-09-11T00:38:48.561Z,14.40
2022-09-11T00:41:25.623Z,14.40
2022-09-11T00:44:03.623Z,14.30
2022-09-11T00:46:40.075Z,14.40
2022-09-11T00:49:22.353Z,14.40
2022-09-11T00:51:57.353Z,14.40
2022-09-11T00:54:32.750Z,14.40
2022-09-11T00:57:07.598Z,14.50
2022-09-11T00:59:45.892Z,14.50
2022-09-11T01:02:27.187Z,14.50
2022-09-11T01:04:58.120Z,14.50
2022-09-11T01:07:31.850Z,14.50
2022-09-11T01:10:03.393Z,14.50
2022-09-11T01:12:46.875Z,14.60
2022-09-11T01:15:33.123Z,14.60
2022-09-11T01:18:13.314Z,14.60
2022-09-11T01:21:12.018Z,14.50
2022-09-11T01:24:23.122Z,14.50
2022-09-11T01:27:12.960Z,14.40
2022-09-11T01:29:53.458Z,14.30
2022-09-11T01:32:31.772Z,14.20
2022-09-11T01:35:12.068Z,14.20
2022-09-11T01:37:50.899Z,14.10
2022-09-11T01:40:27.817Z,14.10
2022-09-11T01:43:09.557Z,14.10
2022-09-11T01:45:47.783Z,14.10
2022-09-11T01:48:25.828Z,14.10
2022-09-11T01:51:01.203Z,14.10
2022-09-11T01:53:39.963Z,14.10
2022-09-11T01:56:19.548Z,14.00
2022-09-11T01:58:56.176Z,14.00
2022-09-11T02:01:36.118Z,13.80
2022-09-11T02:04:13.464Z,13.70
2022-09-11T02:06:50.604Z,13.60
2022-09-11T02:09:28.590Z,13.60
2022-09-11T02:12:02.746Z,13.50
2022-09-11T02:14:44.223Z,13.60
2022-09-11T02:17:27.468Z,13.60
2022-09-11T02:20:00.676Z,13.70
2022-09-11T02:22:31.020Z,13.70
2022-09-11T02:25:07.740Z,13.60
2022-09-11T02:27:38.064Z,13.70
2022-09-11T02:30:12.396Z,13.70
2022-09-11T02:32:47.514Z,13.80
2022-09-11T02:35:18.643Z,13.80
2022-09-11T02:38:00.854Z,13.80
2022-09-11T02:40:49.681Z,13.90
2022-09-11T02:43:58.572Z,13.90
2022-09-11T02:46:59.537Z,13.90
2022-09-11T02:49:52.568Z,13.90
2022-09-11T02:52:37.476Z,13.90
2022-09-11T02:55:16.255Z,14.00
2022-09-11T02:57:58.570Z,14.00
2022-09-11T03:00:29.170Z,14.00
2022-09-11T03:03:00.988Z,14.00
2022-09-11T03:05:33.763Z,14.10
2022-09-11T03:08:05.492Z,14.10
2022-09-11T03:10:35.611Z,14.10
2022-09-11T03:13:05.604Z,14.10
2022-09-11T03:15:35.559Z,14.10
2022-09-11T03:18:05.672Z,14.00
2022-09-11T03:20:38.972Z,14.10
2022-09-11T03:23:11.212Z,14.00
2022-09-11T03:25:42.644Z,14.00
2022-09-11T03:28:14.139Z,14.10
2022-09-11T03:30:44.894Z,14.00
2022-09-11T03:33:15.105Z,14.10
2022-09-11T03:35:49.560Z,14.10
2022-09-11T03:38:19.991Z,14.20
2022-09-11T03:40:50.414Z,14.10
2022-09-11T03:43:20.353Z,14.10
2022-09-11T03:45:52.641Z,14.10
2022-09-11T03:48:23.265Z,14.10
2022-09-11T03:50:56.221Z,14.20
2022-09-11T03:53:26.745Z,14.20
2022-09-11T03:55:57.036Z,14.10
2022-09-11T03:58:27.143Z,14.10
2022-09-11T04:00:57.131Z,14.10
2022-09-11T04:03:27.812Z,14.10
2022-09-11T04:06:05.411Z,14.10
2022-09-11T04:08:37.561Z,14.10
2022-09-11T04:11:09.913Z,14.10
2022-09-11T04:13:43.809Z,14.10
2022-09-11T04:16:19.958Z,14.20
2022-09-11T04:18:54.396Z,14.20
2022-09-11T04:21:27.762Z,14.20
2022-09-11T04:24:00.506Z,14.30
2022-09-11T04:26:35.577Z,14.30
2022-09-11T04:29:17.786Z,14.30
2022-09-11T04:31:48.559Z,14.30
2022-09-11T04:34:19.797Z,14.30
2022-09-11T04:36:52.379Z,14.30
2022-09-11T04:39:24.736Z,14.40
2022-09-11T04:41:55.438Z,14.30
2022-09-11T04:44:26.374Z,14.40
2022-09-11T04:46:59.250Z,14.50
2022-09-11T04:49:29.326Z,14.60
2022-09-11T04:52:06.072Z,14.60
2022-09-11T04:54:37.015Z,14.70
2022-09-11T04:57:10.359Z,14.70
2022-09-11T04:59:41.517Z,14.80
2022-09-11T05:02:15.456Z,14.80
2022-09-11T05:04:48.862Z,14.80
2022-09-11T05:07:22.714Z,14.80
2022-09-11T05:09:54.924Z,14.80
2022-09-11T05:12:25.630Z,14.80
2022-09-11T05:14:55.562Z,15.00
2022-09-11T05:17:25.749Z,15.00
2022-09-11T05:19:56.611Z,15.10
2022-09-11T05:22:29.367Z,15.30
2022-09-11T05:25:02.064Z,15.40
2022-09-11T05:27:32.120Z,15.60
2022-09-11T05:30:02.156Z,15.70
2022-09-11T05:32:32.439Z,15.80
2022-09-11T05:35:05.074Z,15.70
2022-09-11T05:37:37.666Z,15.80
2022-09-11T05:40:09.761Z,15.80
2022-09-11T05:42:39.720Z,15.80
2022-09-11T05:45:10.800Z,15.70
2022-09-11T05:47:40.882Z,15.70
2022-09-11T05:50:12.058Z,15.70
2022-09-11T05:52:44.607Z,15.70
2022-09-11T05:55:14.554Z,15.80
2022-09-11T05:57:44.790Z,15.90
2022-09-11T06:00:17.755Z,15.90
2022-09-11T06:02:54.347Z,16.10
2022-09-11T06:05:27.360Z,16.30
2022-09-11T06:08:02.009Z,16.30
2022-09-11T06:10:32.366Z,16.20
2022-09-11T06:13:02.886Z,16.20
2022-09-11T06:15:46.653Z,16.30
2022-09-11T06:18:18.324Z,16.40
2022-09-11T06:20:59.207Z,16.40
2022-09-11T06:23:33.245Z,16.40
2022-09-11T06:26:10.013Z,16.50
2022-09-11T06:28:43.716Z,16.60
2022-09-11T06:31:18.257Z,16.70
2022-09-11T06:33:51.114Z,16.90
2022-09-11T06:36:24.461Z,17.00
2022-09-11T06:39:00.126Z,17.10
2022-09-11T06:41:32.842Z,17.20
2022-09-11T06:44:10.575Z,17.20
2022-09-11T06:46:42.323Z,17.30
2022-09-11T06:49:13.420Z,17.30
2022-09-11T06:52:01.706Z,17.30
2022-09-11T06:54:36.130Z,17.40
2022-09-11T06:57:11.759Z,17.50
2022-09-11T06:59:43.171Z,17.50
2022-09-11T07:02:13.570Z,17.50
2022-09-11T07:04:43.600Z,17.20
2022-09-11T07:07:14.189Z,17.30
2022-09-11T07:09:47.869Z,17.30
2022-09-11T07:12:19.237Z,17.30
2022-09-11T07:14:51.429Z,17.40
2022-09-11T07:17:21.964Z,17.40
2022-09-11T07:19:54.408Z,17.30
2022-09-11T07:22:24.481Z,17.50
2022-09-11T07:24:57.113Z,17.60
2022-09-11T07:27:27.161Z,17.80
2022-09-11T07:29:57.169Z,17.90
2022-09-11T07:32:31.186Z,18.20
2022-09-11T07:35:02.569Z,18.50
2022-09-11T07:37:32.669Z,18.50
2022-09-11T07:40:06.359Z,18.50
2022-09-11T07:42:36.888Z,18.80
2022-09-11T07:45:08.464Z,18.80
2022-09-11T07:47:38.635Z,18.60
2022-09-11T07:50:11.222Z,18.60
2022-09-11T07:52:42.608Z,18.50
2022-09-11T07:55:15.446Z,18.10
2022-09-11T07:57:47.246Z,17.90
2022-09-11T08:00:18.958Z,17.90
2022-09-11T08:02:51.750Z,17.90
2022-09-11T08:05:31.894Z,17.90
2022-09-11T08:08:02.296Z,18.00
2022-09-11T08:10:36.184Z,18.20
2022-09-11T08:13:09.457Z,18.20
2022-09-11T08:15:40.070Z,18.50
2022-09-11T08:18:10.995Z,18.70
2022-09-11T08:20:41.830Z,18.50
2022-09-11T08:23:12.543Z,18.40
2022-09-11T08:25:46.578Z,18.50
2022-09-11T08:28:17.750Z,18.40
2022-09-11T08:30:47.789Z,18.50
2022-09-11T08:33:19.428Z,18.50
2022-09-11T08:35:49.813Z,18.40
2022-09-11T08:38:20.654Z,18.50
2022-09-11T08:40:54.087Z,18.70
2022-09-11T08:43:31.001Z,18.70
2022-09-11T08:46:09.411Z,19.20
2022-09-11T08:48:57.461Z,20.00
2022-09-11T08:51:28.771Z,21.40
2022-09-11T08:53:59.680Z,22.40
2022-09-11T08:56:36.217Z,23.20
2022-09-11T08:59:27.095Z,24.80
2022-09-11T09:02:11.394Z,26.10
2022-09-11T09:05:05.461Z,26.30
2022-09-11T09:07:52.519Z,27.60
2022-09-11T09:10:37.506Z,29.60
2022-09-11T09:13:33.598Z,30.20
2022-09-11T09:16:21.027Z,27.50
2022-09-11T09:19:00.894Z,25.50
2022-09-11T09:21:39.221Z,24.00
2022-09-11T09:24:19.561Z,22.40
2022-09-11T09:26:57.587Z,21.20
2022-09-11T09:29:41.274Z,20.10
2022-09-11T09:32:22.849Z,19.80
2022-09-11T09:34:58.365Z,19.40
2022-09-11T09:37:31.305Z,19.20
2022-09-11T09:40:11.043Z,19.00
2022-09-11T09:43:17.269Z,19.20
2022-09-11T09:46:16.670Z,20.10
2022-09-11T09:48:46.727Z,22.70
2022-09-11T09:51:17.782Z,26.00
2022-09-11T09:53:54.011Z,27.60
2022-09-11T09:56:26.433Z,29.10
2022-09-11T09:59:04.649Z,31.30
2022-09-11T10:01:54.095Z,33.00
2022-09-11T10:04:27.147Z,34.30
2022-09-11T10:09:39.270Z,33.80
2022-09-11T10:12:18.068Z,29.30
2022-09-11T10:14:56.292Z,26.70
2022-09-11T10:17:37.163Z,24.70
2022-09-11T10:20:26.818Z,23.80
2022-09-11T10:22:58.692Z,23.10
2022-09-11T10:25:30.533Z,22.70
2022-09-11T10:28:10.171Z,22.90
2022-09-11T10:30:44.238Z,23.50
2022-09-11T10:33:33.686Z,24.20
2022-09-11T10:36:09.146Z,24.90
2022-09-11T10:38:49.293Z,24.60
2022-09-11T10:41:23.349Z,24.00
2022-09-11T10:44:00.497Z,23.40
2022-09-11T10:46:40.713Z,23.30
2022-09-11T10:49:22.274Z,23.60
2022-09-11T10:52:05.596Z,24.30
2022-09-11T10:55:00.677Z,25.10
2022-09-11T10:57:37.344Z,26.60
2022-09-11T11:00:19.241Z,26.80
2022-09-11T11:02:53.246Z,25.70
2022-09-11T11:05:37.863Z,24.70
2022-09-11T11:08:30.100Z,24.20
2022-09-11T11:11:24.305Z,23.60
2022-09-11T11:14:28.925Z,23.40
2022-09-11T11:17:13.382Z,23.70
2022-09-11T11:20:10.975Z,24.80
2022-09-11T11:23:22.334Z,27.30
2022-09-11T11:26:07.911Z,29.10
2022-09-11T11:29:07.226Z,29.90
2022-09-11T11:31:52.563Z,30.20
2022-09-11T11:34:40.078Z,30.80
2022-09-11T11:37:16.231Z,30.50
2022-09-11T11:40:00.532Z,31.00
2022-09-11T11:42:38.426Z,31.70
2022-09-11T11:45:20.346Z,31.50
2022-09-11T11:47:52.959Z,30.90
2022-09-11T11:50:32.096Z,29.50
2022-09-11T11:53:14.082Z,27.80
2022-09-11T11:56:01.136Z,27.70
2022-09-11T11:58:48.278Z,29.30
2022-09-11T12:01:27.075Z,30.20
2022-09-11T12:04:07.065Z,31.30
2022-09-11T12:06:37.009Z,31.60
2022-09-11T12:09:11.875Z,30.90
2022-09-11T12:11:48.913Z,31.90
2022-09-11T12:14:32.270Z,32.40
2022-09-11T12:17:22.769Z,32.50
2022-09-11T12:20:32.586Z,31.00
2022-09-11T12:23:03.476Z,29.20
2022-09-11T12:26:18.756Z,27.80
2022-09-11T12:28:52.545Z,28.10
2022-09-11T12:31:22.845Z,30.10
2022-09-11T12:33:57.677Z,31.10
2022-09-11T12:36:54.104Z,30.40
2022-09-11T12:39:37.740Z,29.00
2022-09-11T12:42:57.794Z,27.80
2022-09-11T12:45:39.474Z,27.00
2022-09-11T12:48:14.594Z,26.60
2022-09-11T12:50:54.216Z,26.40
2022-09-11T12:53:30.312Z,26.40
2022-09-11T12:56:05.687Z,26.30
2022-09-11T12:58:41.780Z,26.50
2022-09-11T13:01:36.008Z,25.90
2022-09-11T13:04:19.277Z,25.80
2022-09-11T13:06:54.871Z,25.20
2022-09-11T13:09:31.333Z,24.70
2022-09-11T13:12:52.890Z,24.20
2022-09-11T13:15:44.737Z,23.80
2022-09-11T13:18:35.570Z,23.80
2022-09-11T13:21:20.336Z,23.80
2022-09-11T13:23:53.136Z,23.70
2022-09-11T13:26:32.815Z,23.80
2022-09-11T13:29:04.324Z,23.60
2022-09-11T13:31:37.940Z,23.40
2022-09-11T13:34:21.993Z,23.60
2022-09-11T13:36:56.435Z,23.50
2022-09-11T13:39:29.590Z,23.60
2022-09-11T13:42:05.323Z,23.70
2022-09-11T13:44:46.521Z,23.90
2022-09-11T13:47:22.946Z,23.90
2022-09-11T13:50:00.830Z,24.00
2022-09-11T13:52:36.955Z,23.90
2022-09-11T13:55:19.286Z,24.10
2022-09-11T13:57:56.849Z,23.90
2022-09-11T14:00:48.278Z,23.70
2022-09-11T14:03:28.092Z,23.90
2022-09-11T14:06:04.262Z,23.90
2022-09-11T14:08:39.365Z,23.70
2022-09-11T14:11:13.099Z,23.80
2022-09-11T14:13:49.626Z,23.60
2022-09-11T14:16:29.439Z,23.60
2022-09-11T14:19:09.161Z,23.80
2022-09-11T14:21:46.633Z,24.40
2022-09-11T14:24:32.850Z,24.60
2022-09-11T14:27:04.575Z,25.00
2022-09-11T14:29:37.558Z,25.50
2022-09-11T14:32:34.279Z,25.60
2022-09-11T14:35:06.567Z,26.00
2022-09-11T14:37:46.100Z,26.10
2022-09-11T14:40:21.250Z,26.10
2022-09-11T14:42:51.865Z,25.60
2022-09-11T14:45:26.012Z,24.80
2022-09-11T14:47:56.483Z,24.30
2022-09-11T14:50:26.894Z,24.10
2022-09-11T14:52:59.907Z,23.70
2022-09-11T14:55:30.491Z,23.50
2022-09-11T14:58:00.472Z,23.30
2022-09-11T15:00:32.006Z,23.10
2022-09-11T15:03:04.207Z,23.00
2022-09-11T15:05:34.793Z,23.80
2022-09-11T15:08:07.468Z,24.00
2022-09-11T15:10:37.607Z,24.10
2022-09-11T15:13:07.652Z,23.90
2022-09-11T15:15:37.823Z,24.10
2022-09-11T15:18:07.867Z,24.40
2022-09-11T15:20:37.969Z,24.50
2022-09-11T15:23:10.651Z,25.00
2022-09-11T15:25:41.061Z,25.50
2022-09-11T15:28:11.329Z,25.60
2022-09-11T15:30:42.953Z,25.70
2022-09-11T15:33:13.630Z,26.00
2022-09-11T15:35:43.947Z,26.10
2022-09-11T15:38:16.802Z,26.20
2022-09-11T15:40:46.798Z,26.20
2022-09-11T15:43:16.860Z,26.10
2022-09-11T15:45:46.882Z,25.70
2022-09-11T15:48:17.348Z,25.60
2022-09-11T15:50:47.546Z,25.10
2022-09-11T15:53:20.065Z,25.00
2022-09-11T15:55:50.010Z,24.90
2022-09-11T15:58:19.922Z,24.50
2022-09-11T16:00:49.992Z,24.10
2022-09-11T16:03:21.789Z,23.90
2022-09-11T16:05:51.774Z,23.60
2022-09-11T16:08:24.517Z,23.30
2022-09-11T16:10:55.086Z,23.10
2022-09-11T16:13:25.351Z,22.60
2022-09-11T16:16:05.467Z,22.60
2022-09-11T16:18:39.836Z,22.70
2022-09-11T16:21:10.520Z,22.80
2022-09-11T16:23:44.242Z,22.60
2022-09-11T16:26:20.782Z,22.70
2022-09-11T16:28:51.265Z,22.80
2022-09-11T16:31:21.916Z,22.90
2022-09-11T16:33:56.071Z,23.10
2022-09-11T16:36:28.283Z,23.10
2022-09-11T16:39:00.826Z,23.10
2022-09-11T16:41:30.814Z,22.90
2022-09-11T16:44:00.769Z,23.00
2022-09-11T16:46:30.958Z,23.10
2022-09-11T16:49:01.927Z,23.10
2022-09-11T16:51:33.401Z,23.20
2022-09-11T16:54:06.345Z,23.20
2022-09-11T16:56:36.475Z,23.20
2022-09-11T16:59:07.203Z,23.10
2022-09-11T17:01:37.599Z,23.10
2022-09-11T17:04:07.658Z,22.90
2022-09-11T17:06:37.661Z,22.70
2022-09-11T17:09:10.179Z,22.70
2022-09-11T17:11:40.114Z,22.60
2022-09-11T17:14:10.367Z,22.30
2022-09-11T17:16:41.666Z,22.00
2022-09-11T17:19:12.770Z,21.80
2022-09-11T17:21:42.758Z,21.80
2022-09-11T17:24:18.010Z,21.70
2022-09-11T17:26:48.279Z,21.50
2022-09-11T17:29:19.570Z,21.50
2022-09-11T17:32:01.073Z,21.50
2022-09-11T17:34:41.037Z,21.50
2022-09-11T17:37:11.089Z,21.30
2022-09-11T17:39:44.217Z,21.20
2022-09-11T17:42:14.319Z,21.10
2022-09-11T17:44:44.365Z,21.10
2022-09-11T17:47:14.300Z,21.00
2022-09-11T17:49:45.392Z,20.90
2022-09-11T17:52:15.615Z,20.70
2022-09-11T17:54:49.085Z,20.40
2022-09-11T17:57:19.091Z,20.20
2022-09-11T17:59:50.550Z,20.00
2022-09-11T18:02:21.999Z,19.60
2022-09-11T18:04:52.381Z,19.40
2022-09-11T18:07:22.482Z,19.20
2022-09-11T18:09:56.518Z,19.10
2022-09-11T18:12:28.547Z,18.90
2022-09-11T18:15:00.330Z,18.60
2022-09-11T18:17:30.274Z,18.40
2022-09-11T18:20:00.251Z,18.10
2022-09-11T18:22:30.303Z,18.00
2022-09-11T18:25:02.843Z,17.90
2022-09-11T18:27:33.031Z,18.00
2022-09-11T18:30:03.017Z,17.90
2022-09-11T18:32:33.108Z,17.80
2022-09-11T18:35:04.445Z,17.80
2022-09-11T18:37:34.391Z,17.70
2022-09-11T18:40:07.897Z,17.60
2022-09-11T18:42:37.869Z,17.50
2022-09-11T18:45:10.256Z,17.30
2022-09-11T18:47:40.557Z,17.30
2022-09-11T18:50:12.220Z,17.20
2022-09-11T18:52:42.180Z,17.30
2022-09-11T18:55:15.384Z,17.10
2022-09-11T18:57:48.924Z,17.20
2022-09-11T19:00:21.027Z,17.10
2022-09-11T19:02:52.846Z,17.00
2022-09-11T19:05:23.220Z,16.80
2022-09-11T19:07:55.302Z,16.50
2022-09-11T19:10:28.821Z,16.40
2022-09-11T19:13:00.214Z,16.20
2022-09-11T19:15:31.270Z,16.00
2022-09-11T19:18:01.591Z,16.00
2022-09-11T19:20:31.550Z,16.10
2022-09-11T19:23:03.570Z,16.00
2022-09-11T19:25:38.410Z,15.90
2022-09-11T19:28:08.400Z,15.90
2022-09-11T19:30:42.596Z,15.80
2022-09-11T19:33:13.112Z,15.70
2022-09-11T19:35:43.062Z,15.60
2022-09-11T19:38:13.162Z,15.40
2022-09-11T19:40:45.935Z,15.30
2022-09-11T19:43:15.907Z,15.20
2022-09-11T19:45:45.920Z,15.10
2022-09-11T19:48:15.985Z,15.20
2022-09-11T19:50:46.953Z,15.20
2022-09-11T19:53:17.136Z,15.40
2022-09-11T19:55:49.674Z,15.40
2022-09-11T19:58:23.418Z,15.30
2022-09-11T20:00:54.606Z,15.10
2022-09-11T20:03:24.980Z,15.00
2022-09-11T20:05:57.363Z,15.10
2022-09-11T20:08:27.508Z,15.20
2022-09-11T20:11:00.455Z,15.10
2022-09-11T20:13:31.090Z,15.10
2022-09-11T20:16:07.546Z,15.00
2022-09-11T20:18:38.010Z,14.80
2022-09-11T20:21:11.535Z,14.60
2022-09-11T20:23:42.534Z,14.40
2022-09-11T20:26:18.767Z,14.30
2022-09-11T20:28:50.804Z,14.30
2022-09-11T20:31:24.161Z,14.30
2022-09-11T20:33:54.229Z,14.10
2022-09-11T20:36:27.199Z,14.00
2022-09-11T20:39:00.662Z,13.90
2022-09-11T20:41:35.823Z,13.80
2022-09-11T20:44:07.230Z,13.60
2022-09-11T20:46:37.303Z,13.60
2022-09-11T20:49:08.565Z,13.90
2022-09-11T20:51:38.628Z,14.00
2022-09-11T20:54:08.823Z,14.00
2022-09-11T20:56:41.496Z,14.10
2022-09-11T20:59:11.465Z,14.30
2022-09-11T21:01:41.508Z,14.40
2022-09-11T21:04:12.672Z,14.30
2022-09-11T21:06:42.653Z,14.30
2022-09-11T21:09:14.265Z,14.20
2022-09-11T21:11:47.263Z,14.20
2022-09-11T21:14:19.300Z,14.10
2022-09-11T21:16:49.249Z,13.90
2022-09-11T21:19:19.217Z,13.70
2022-09-11T21:21:49.149Z,13.60
2022-09-11T21:24:19.112Z,13.50
2022-09-11T21:26:51.699Z,13.30
2022-09-11T21:29:21.752Z,13.10
2022-09-11T21:31:52.650Z,13.00
2022-09-11T21:34:22.580Z,13.00
2022-09-11T21:36:52.565Z,12.90
2022-09-11T21:39:22.608Z,12.80
2022-09-11T21:41:55.187Z,12.70
2022-09-11T21:44:25.172Z,12.80
2022-09-11T21:46:55.160Z,13.20
2022-09-11T21:49:25.153Z,13.40
2022-09-11T21:51:55.062Z,13.60
2022-09-11T21:54:28.740Z,13.50
2022-09-11T21:57:03.827Z,13.50
2022-09-11T21:59:34.154Z,13.30
2022-09-11T22:02:04.456Z,13.30
2022-09-11T22:04:34.708Z,13.50
2022-09-11T22:07:05.068Z,13.60
2022-09-11T22:09:35.438Z,13.40
2022-09-11T22:12:08.703Z,13.20
2022-09-11T22:14:38.797Z,13.30
2022-09-11T22:17:08.892Z,13.20
2022-09-11T22:19:39.063Z,13.20
2022-09-11T22:22:09.387Z,13.00
2022-09-11T22:24:39.754Z,13.20
2022-09-11T22:27:13.658Z,13.30
2022-09-11T22:29:46.970Z,13.30
2022-09-11T22:32:17.102Z,13.00
2022-09-11T22:34:47.047Z,12.80
2022-09-11T22:37:17.067Z,12.60
2022-09-11T22:39:47.148Z,12.40
2022-09-11T22:42:19.786Z,12.40
2022-09-11T22:44:50.001Z,12.40
2022-09-11T22:47:20.086Z,12.60
2022-09-11T22:49:50.092Z,12.60
2022-09-11T22:52:20.378Z,12.50
2022-09-11T22:54:50.399Z,12.30
2022-09-11T22:57:22.979Z,12.40
2022-09-11T22:59:53.003Z,12.50
2022-09-11T23:02:22.972Z,12.50
2022-09-11T23:05:05.510Z,12.60
2022-09-11T23:07:35.593Z,12.50
2022-09-11T23:10:05.843Z,12.40
2022-09-11T23:12:38.998Z,12.30
2022-09-11T23:15:10.667Z,12.20
2022-09-11T23:17:40.650Z,11.90
2022-09-11T23:20:12.268Z,11.80
2022-09-11T23:22:42.295Z,11.90
2022-09-11T23:25:13.855Z,11.80
2022-09-11T23:27:47.231Z,11.80
2022-09-11T23:30:17.210Z,11.90
2022-09-11T23:32:47.181Z,11.80
2022-09-11T23:35:17.163Z,11.80
2022-09-11T23:37:47.180Z,11.70
2022-09-11T23:40:17.282Z,11.60
2022-09-11T23:42:49.881Z,11.50
2022-09-11T23:45:20.092Z,11.50
2022-09-11T23:47:50.920Z,11.50
2022-09-11T23:50:21.255Z,11.40
2022-09-11T23:52:51.175Z,11.30
2022-09-11T23:55:22.067Z,11.40
2022-09-11T23:57:55.377Z,11.40
